Time;durP1;ratioP1;P1;durP2;ratioP2;P2;SDS_P1;SDS_P2;PMS_P1;PMS_P2;Temp;Humidity;BMP_temperature;BMP_pressure;BME280_temperature;BME280_humidity;BME280_pressure;Samples;Min_cycle;Max_cycle;Signal;HPM_P1;HPM_P2
2021/05/29 00:03:43;;;;;;;8.60;3.70;;;;;;;;;;10524221;28;20211;-69
2021/05/29 00:08:45;;;;;;;9.30;3.53;;;;;;;;;;10523352;28;20307;-70
2021/05/29 00:13:47;;;;;;;7.50;3.33;;;;;;;;;;10524784;28;20741;-70
2021/05/29 00:18:50;;;;;;;6.97;3.67;;;;;;;;;;10522508;28;20202;-70
2021/05/29 00:23:52;;;;;;;9.00;3.90;;;;;;;;;;10528643;28;20709;-70
2021/05/29 00:28:55;;;;;;;7.63;3.30;;;;;;;;;;10524978;28;20284;-70
2021/05/29 00:33:58;;;;;;;7.00;3.53;;;;;;;;;;10525564;28;20231;-70
2021/05/29 00:39:00;;;;;;;7.70;3.80;;;;;;;;;;10522127;28;20227;-72
2021/05/29 00:44:02;;;;;;;7.60;3.70;;;;;;;;;;10524985;28;20374;-70
2021/05/29 00:49:05;;;;;;;5.33;2.83;;;;;;;;;;10524633;28;20230;-70
2021/05/29 00:54:10;;;;;;;6.33;3.40;;;;;;;;;;10520219;28;20246;-70
2021/05/29 00:59:12;;;;;;;8.37;3.60;;;;;;;;;;10531577;28;20200;-69
2021/05/29 01:04:15;;;;;;;7.80;3.67;;;;;;;;;;10522164;28;20275;-70
2021/05/29 01:09:17;;;;;;;7.93;3.77;;;;;;;;;;10522722;28;20200;-70
2021/05/29 01:14:19;;;;;;;7.50;3.57;;;;;;;;;;10520004;28;20694;-70
2021/05/29 01:19:22;;;;;;;8.20;4.10;;;;;;;;;;10521660;28;20199;-71
2021/05/29 01:24:26;;;;;;;9.07;4.10;;;;;;;;;;10523172;28;20783;-70
2021/05/29 01:29:29;;;;;;;7.07;3.50;;;;;;;;;;10524118;28;20192;-70
2021/05/29 01:34:32;;;;;;;8.97;3.93;;;;;;;;;;10520556;28;20235;-70
2021/05/29 01:39:35;;;;;;;7.90;4.17;;;;;;;;;;10525147;28;20196;-71
2021/05/29 01:44:37;;;;;;;7.83;4.20;;;;;;;;;;10518453;28;20220;-70
2021/05/29 01:49:39;;;;;;;8.20;4.20;;;;;;;;;;10519760;28;20567;-71
2021/05/29 01:54:42;;;;;;;7.43;3.90;;;;;;;;;;10526182;28;20277;-69
2021/05/29 01:59:44;;;;;;;8.13;4.10;;;;;;;;;;10533040;28;20195;-69
2021/05/29 02:04:46;;;;;;;8.40;4.40;;;;;;;;;;10534165;28;20239;-69
2021/05/29 02:09:49;;;;;;;8.03;4.20;;;;;;;;;;10530079;28;20211;-70
2021/05/29 02:14:51;;;;;;;9.23;4.80;;;;;;;;;;10531464;28;20663;-70
2021/05/29 02:19:54;;;;;;;8.00;4.43;;;;;;;;;;10530148;28;20196;-69
2021/05/29 02:24:57;;;;;;;8.80;4.53;;;;;;;;;;10530961;28;20220;-70
2021/05/29 02:29:59;;;;;;;8.77;4.77;;;;;;;;;;10534418;28;20211;-69
2021/05/29 02:35:01;;;;;;;9.00;4.63;;;;;;;;;;10528379;28;20210;-70
2021/05/29 02:40:05;;;;;;;8.73;5.17;;;;;;;;;;10532609;28;20629;-68
2021/05/29 02:45:08;;;;;;;9.93;5.10;;;;;;;;;;10530924;28;20249;-70
2021/05/29 02:50:11;;;;;;;8.53;4.33;;;;;;;;;;10529395;28;20192;-69
2021/05/29 02:55:21;;;;;;;8.90;4.80;;;;;;;;;;10533463;28;20631;-70
2021/05/29 03:00:25;;;;;;;9.57;4.80;;;;;;;;;;10522355;28;20676;-70
2021/05/29 03:05:27;;;;;;;8.53;5.10;;;;;;;;;;10521091;28;20251;-70
2021/05/29 03:10:30;;;;;;;9.40;4.30;;;;;;;;;;10526559;28;20238;-71
2021/05/29 03:15:32;;;;;;;8.30;4.43;;;;;;;;;;10529510;28;20710;-70
2021/05/29 03:20:34;;;;;;;9.50;4.63;;;;;;;;;;10529647;28;20261;-70
2021/05/29 03:25:37;;;;;;;9.37;4.93;;;;;;;;;;10523791;28;20220;-69
2021/05/29 03:30:41;;;;;;;9.60;5.13;;;;;;;;;;10526512;28;20288;-70
2021/05/29 03:35:43;;;;;;;9.10;4.40;;;;;;;;;;10530405;28;20557;-69
2021/05/29 03:40:46;;;;;;;9.20;4.67;;;;;;;;;;10531319;28;20196;-70
2021/05/29 03:45:48;;;;;;;9.97;4.70;;;;;;;;;;10524611;28;20433;-70
2021/05/29 03:50:51;;;;;;;8.10;4.60;;;;;;;;;;10525420;28;20248;-69
2021/05/29 03:55:54;;;;;;;9.30;5.00;;;;;;;;;;10529911;28;20227;-70
2021/05/29 04:00:56;;;;;;;9.17;4.53;;;;;;;;;;10525125;28;20347;-70
2021/05/29 04:05:58;;;;;;;10.90;4.50;;;;;;;;;;10527248;28;20220;-70
2021/05/29 04:11:01;;;;;;;8.87;4.37;;;;;;;;;;10519550;28;20196;-71
2021/05/29 04:16:15;;;;;;;9.37;4.50;;;;;;;;;;10520310;28;20298;-70
2021/05/29 04:21:37;;;;;;;7.67;4.00;;;;;;;;;;10520017;28;20241;-70
2021/05/29 04:26:40;;;;;;;8.13;4.00;;;;;;;;;;10518782;28;20229;-69
2021/05/29 04:31:42;;;;;;;8.20;4.20;;;;;;;;;;10524173;28;20212;-70
2021/05/29 04:36:45;;;;;;;7.67;4.23;;;;;;;;;;10521993;28;20227;-70
2021/05/29 04:41:48;;;;;;;7.10;3.67;;;;;;;;;;10528539;28;20215;-71
2021/05/29 04:46:51;;;;;;;6.83;3.40;;;;;;;;;;10525004;28;20222;-70
2021/05/29 04:51:54;;;;;;;6.87;3.33;;;;;;;;;;10518837;28;20212;-70
2021/05/29 04:56:57;;;;;;;6.57;3.73;;;;;;;;;;10524172;28;20660;-70
2021/05/29 05:01:59;;;;;;;7.70;3.60;;;;;;;;;;10522295;28;20593;-70
2021/05/29 05:07:01;;;;;;;7.57;3.43;;;;;;;;;;10519068;28;20219;-71
2021/05/29 05:12:05;;;;;;;6.93;3.40;;;;;;;;;;10512232;28;20223;-70
2021/05/29 05:17:07;;;;;;;6.13;3.17;;;;;;;;;;10524844;28;20678;-70
2021/05/29 05:22:09;;;;;;;6.07;3.20;;;;;;;;;;10525878;28;20238;-70
2021/05/29 05:27:12;;;;;;;5.40;3.00;;;;;;;;;;10524167;28;20212;-70
2021/05/29 05:32:14;;;;;;;4.87;3.27;;;;;;;;;;10531235;28;20233;-70
2021/05/29 05:37:16;;;;;;;7.57;3.30;;;;;;;;;;10531412;28;21198;-70
2021/05/29 05:42:19;;;;;;;5.40;2.63;;;;;;;;;;10535665;28;20242;-69
2021/05/29 05:47:21;;;;;;;6.30;3.37;;;;;;;;;;10524396;28;20686;-69
2021/05/29 05:52:24;;;;;;;7.07;3.33;;;;;;;;;;10534402;28;20223;-71
2021/05/29 05:57:26;;;;;;;5.73;2.70;;;;;;;;;;10530381;28;20215;-68
2021/05/29 06:02:28;;;;;;;5.43;2.80;;;;;;;;;;10527620;28;20216;-69
2021/05/29 06:07:31;;;;;;;6.30;2.80;;;;;;;;;;10525840;28;20220;-69
2021/05/29 06:12:36;;;;;;;5.13;2.70;;;;;;;;;;10527536;28;20227;-68
2021/05/29 06:18:03;;;;;;;5.47;2.90;;;;;;;;;;10530806;28;20578;-69
2021/05/29 06:23:06;;;;;;;5.03;2.90;;;;;;;;;;10526366;28;20215;-67
2021/05/29 06:28:09;;;;;;;4.57;2.33;;;;;;;;;;10530799;28;20264;-66
2021/05/29 06:33:11;;;;;;;5.33;2.70;;;;;;;;;;10532148;28;20575;-69
2021/05/29 06:38:13;;;;;;;4.53;2.77;;;;;;;;;;10524434;28;20199;-70
2021/05/29 06:43:16;;;;;;;4.93;2.70;;;;;;;;;;10526463;28;20678;-70
2021/05/29 06:48:20;;;;;;;5.07;2.80;;;;;;;;;;10527775;28;20635;-69
2021/05/29 06:53:26;;;;;;;5.70;2.67;;;;;;;;;;10522485;28;20299;-69
2021/05/29 06:58:41;;;;;;;6.37;2.87;;;;;;;;;;10528109;28;20203;-70
2021/05/29 07:03:43;;;;;;;4.90;2.70;;;;;;;;;;10527245;28;20223;-69
2021/05/29 07:08:45;;;;;;;6.37;2.83;;;;;;;;;;10515431;28;20880;-71
2021/05/29 07:13:48;;;;;;;5.53;2.67;;;;;;;;;;10530013;28;20729;-68
2021/05/29 07:18:50;;;;;;;3.60;2.30;;;;;;;;;;10520575;28;20192;-68
2021/05/29 07:23:52;;;;;;;4.53;2.57;;;;;;;;;;10528858;28;20227;-68
2021/05/29 07:28:55;;;;;;;5.13;2.57;;;;;;;;;;10529113;28;20591;-68
2021/05/29 07:33:57;;;;;;;4.87;2.60;;;;;;;;;;10523870;28;20303;-68
2021/05/29 07:38:59;;;;;;;4.47;2.40;;;;;;;;;;10523391;28;20234;-68
2021/05/29 07:44:02;;;;;;;5.63;2.13;;;;;;;;;;10530492;28;20211;-69
2021/05/29 07:49:05;;;;;;;4.33;2.10;;;;;;;;;;10523552;28;20208;-68
2021/05/29 07:54:08;;;;;;;4.67;2.30;;;;;;;;;;10517356;28;20296;-69
2021/05/29 07:59:15;;;;;;;3.87;2.13;;;;;;;;;;10525312;28;20188;-69
2021/05/29 08:04:17;;;;;;;4.37;2.10;;;;;;;;;;10522661;28;20243;-70
2021/05/29 08:09:20;;;;;;;3.97;2.17;;;;;;;;;;10523792;28;20307;-69
2021/05/29 08:14:23;;;;;;;3.13;2.10;;;;;;;;;;10525607;28;20219;-70
2021/05/29 08:19:25;;;;;;;3.22;2.10;;;;;;;;;;10522845;28;20187;-68
2021/05/29 08:24:27;;;;;;;4.30;2.13;;;;;;;;;;10528066;28;20286;-69
2021/05/29 08:29:30;;;;;;;3.95;2.20;;;;;;;;;;10520802;28;20215;-70
2021/05/29 08:34:32;;;;;;;4.35;2.22;;;;;;;;;;10520956;28;20590;-70
2021/05/29 08:39:34;;;;;;;3.30;2.35;;;;;;;;;;10522551;28;20195;-69
2021/05/29 08:44:37;;;;;;;3.25;2.10;;;;;;;;;;10521225;28;20220;-68
2021/05/29 08:49:39;;;;;;;3.47;2.28;;;;;;;;;;10521360;28;20243;-68
2021/05/29 08:54:42;;;;;;;6.00;2.63;;;;;;;;;;10524808;28;20879;-69
2021/05/29 08:59:45;;;;;;;4.28;2.40;;;;;;;;;;10525496;28;20190;-67
2021/05/29 09:05:05;;;;;;;3.00;2.20;;;;;;;;;;10513958;28;20583;-69
2021/05/29 09:10:15;;;;;;;2.85;2.20;;;;;;;;;;10517690;28;20753;-67
2021/05/29 09:15:19;;;;;;;4.13;2.47;;;;;;;;;;10516578;28;20306;-68
2021/05/29 09:20:22;;;;;;;2.45;2.13;;;;;;;;;;10509678;28;20240;-68
2021/05/29 09:25:25;;;;;;;3.70;2.53;;;;;;;;;;10524167;28;20641;-68
2021/05/29 09:30:38;;;;;;;3.80;2.60;;;;;;;;;;10524456;28;20262;-68
2021/05/29 09:35:41;;;;;;;2.97;2.20;;;;;;;;;;10515035;28;20307;-69
2021/05/29 09:40:50;;;;;;;4.40;2.30;;;;;;;;;;10521922;28;20245;-68
2021/05/29 09:46:00;;;;;;;4.03;2.25;;;;;;;;;;10522768;28;20344;-69
2021/05/29 09:51:07;;;;;;;3.08;2.30;;;;;;;;;;10518755;28;20196;-68
2021/05/29 09:56:22;;;;;;;2.67;2.33;;;;;;;;;;10519076;28;20670;-70
2021/05/29 10:01:43;;;;;;;2.85;2.08;;;;;;;;;;10521169;28;20186;-69
2021/05/29 10:06:54;;;;;;;3.67;2.10;;;;;;;;;;10519962;28;20191;-69
2021/05/29 10:11:57;;;;;;;4.00;2.33;;;;;;;;;;10523153;28;20257;-68
2021/05/29 10:17:01;;;;;;;3.47;2.50;;;;;;;;;;10522862;28;20293;-66
2021/05/29 10:22:04;;;;;;;4.72;2.13;;;;;;;;;;10520548;28;20257;-68
2021/05/29 10:27:08;;;;;;;4.13;2.38;;;;;;;;;;10520568;28;20187;-67
2021/05/29 10:32:12;;;;;;;3.38;2.38;;;;;;;;;;10521102;28;20215;-67
2021/05/29 10:37:16;;;;;;;4.80;2.20;;;;;;;;;;10525438;28;20199;-67
2021/05/29 10:42:28;;;;;;;4.25;2.10;;;;;;;;;;10524043;28;20318;-67
2021/05/29 10:48:02;;;;;;;3.42;2.30;;;;;;;;;;10523635;28;20207;-67
2021/05/29 10:53:04;;;;;;;3.30;2.10;;;;;;;;;;10525171;28;20881;-68
2021/05/29 10:58:06;;;;;;;5.38;3.75;;;;;;;;;;10525349;28;20206;-66
2021/05/29 11:03:22;;;;;;;3.88;2.33;;;;;;;;;;10528352;28;20539;-67
2021/05/29 11:08:42;;;;;;;6.28;4.57;;;;;;;;;;10518896;28;20555;-67
2021/05/29 11:13:59;;;;;;;3.50;2.10;;;;;;;;;;10523382;28;20219;-68
2021/05/29 11:19:12;;;;;;;3.17;2.22;;;;;;;;;;10527272;28;20294;-68
2021/05/29 11:24:17;;;;;;;3.22;2.30;;;;;;;;;;10518499;28;20688;-67
2021/05/29 11:29:19;;;;;;;2.10;1.90;;;;;;;;;;10520032;28;20237;-68
2021/05/29 11:34:22;;;;;;;5.32;3.53;;;;;;;;;;10528850;28;20216;-68
2021/05/29 11:39:25;;;;;;;3.38;1.90;;;;;;;;;;10523683;28;20208;-67
2021/05/29 11:44:29;;;;;;;4.50;2.67;;;;;;;;;;10518778;28;20223;-66
2021/05/29 11:49:36;;;;;;;3.38;1.90;;;;;;;;;;10518996;28;20275;-66
2021/05/29 11:54:40;;;;;;;2.85;2.00;;;;;;;;;;10528191;28;20578;-67
2021/05/29 11:59:42;;;;;;;2.10;1.80;;;;;;;;;;10536129;28;20223;-67
2021/05/29 12:04:50;;;;;;;2.35;1.77;;;;;;;;;;10515182;28;20219;-67
2021/05/29 12:09:56;;;;;;;1.92;1.60;;;;;;;;;;10516885;28;20257;-69
2021/05/29 12:14:59;;;;;;;2.67;1.80;;;;;;;;;;10529726;28;20725;-67
2021/05/29 12:20:09;;;;;;;2.42;1.77;;;;;;;;;;10522829;28;20570;-69
2021/05/29 12:25:12;;;;;;;3.90;1.70;;;;;;;;;;10524514;28;20330;-66
2021/05/29 12:30:16;;;;;;;4.25;2.30;;;;;;;;;;10533472;28;20184;-68
2021/05/29 12:35:30;;;;;;;2.60;1.80;;;;;;;;;;10524450;28;20299;-67
2021/05/29 12:40:32;;;;;;;2.05;1.60;;;;;;;;;;10523504;28;20224;-67
2021/05/29 12:45:34;;;;;;;3.22;1.90;;;;;;;;;;10527190;28;20208;-68
2021/05/29 12:50:38;;;;;;;2.50;1.60;;;;;;;;;;10518528;28;20188;-67
2021/05/29 12:55:40;;;;;;;2.45;1.70;;;;;;;;;;10511900;28;20269;-68
2021/05/29 13:00:52;;;;;;;3.88;1.95;;;;;;;;;;10523194;28;20516;-67
2021/05/29 13:11:29;;;;;;;3.03;1.70;;;;;;;;;;10514084;28;20282;-68
2021/05/29 13:16:51;;;;;;;2.25;1.70;;;;;;;;;;10520423;28;20216;-69
2021/05/29 13:21:55;;;;;;;3.90;1.83;;;;;;;;;;10512818;28;20211;-68
2021/05/29 13:26:57;;;;;;;2.28;1.40;;;;;;;;;;10519654;28;20307;-68
2021/05/29 13:31:59;;;;;;;3.67;2.00;;;;;;;;;;10524762;28;20302;-68
2021/05/29 13:37:03;;;;;;;5.55;3.42;;;;;;;;;;10522859;28;20587;-68
2021/05/29 13:42:09;;;;;;;2.75;1.80;;;;;;;;;;10521611;28;20663;-68
2021/05/29 13:47:11;;;;;;;2.88;1.48;;;;;;;;;;10522096;28;20192;-69
2021/05/29 13:52:15;;;;;;;3.15;1.73;;;;;;;;;;10523428;28;20217;-67
2021/05/29 13:57:17;;;;;;;3.55;1.70;;;;;;;;;;10533778;28;20207;-67
2021/05/29 14:02:19;;;;;;;3.78;1.55;;;;;;;;;;10527636;28;20216;-69
2021/05/29 14:07:22;;;;;;;2.33;1.30;;;;;;;;;;10526479;28;20274;-67
2021/05/29 14:12:24;;;;;;;4.00;2.42;;;;;;;;;;10524975;28;20234;-66
2021/05/29 14:17:27;;;;;;;1.80;1.20;;;;;;;;;;10522974;28;20230;-67
2021/05/29 14:22:29;;;;;;;1.77;1.48;;;;;;;;;;10523150;28;20295;-68
2021/05/29 14:27:33;;;;;;;2.05;1.48;;;;;;;;;;10534512;28;20203;-68
2021/05/29 14:32:35;;;;;;;1.90;1.40;;;;;;;;;;10529343;28;20253;-69
2021/05/29 14:37:38;;;;;;;4.65;2.13;;;;;;;;;;10531025;28;20207;-67
2021/05/29 14:42:40;;;;;;;2.83;1.75;;;;;;;;;;10529701;28;20223;-68
2021/05/29 14:47:43;;;;;;;2.97;1.35;;;;;;;;;;10528419;28;20225;-67
2021/05/29 14:52:46;;;;;;;4.05;2.20;;;;;;;;;;10530777;28;20324;-68
2021/05/29 14:57:48;;;;;;;2.95;1.40;;;;;;;;;;10527372;28;20215;-67
2021/05/29 15:02:51;;;;;;;2.25;1.40;;;;;;;;;;10525095;28;20216;-69
2021/05/29 15:07:54;;;;;;;1.95;1.27;;;;;;;;;;10517396;28;20656;-67
2021/05/29 15:12:56;;;;;;;2.30;1.33;;;;;;;;;;10526168;28;20288;-67
2021/05/29 15:17:58;;;;;;;2.15;1.63;;;;;;;;;;10521643;28;20270;-70
2021/05/29 15:23:01;;;;;;;2.83;1.50;;;;;;;;;;10528025;28;21927;-69
2021/05/29 15:28:03;;;;;;;2.38;1.27;;;;;;;;;;10525621;28;20192;-66
2021/05/29 15:33:05;;;;;;;1.97;1.20;;;;;;;;;;10523941;28;20277;-66
2021/05/29 15:38:08;;;;;;;1.80;1.40;;;;;;;;;;10528686;28;20208;-68
2021/05/29 15:43:10;;;;;;;2.03;1.40;;;;;;;;;;10524467;28;20698;-68
2021/05/29 15:48:12;;;;;;;1.87;1.63;;;;;;;;;;10526510;28;20199;-68
2021/05/29 15:53:15;;;;;;;2.00;1.53;;;;;;;;;;10534173;28;20216;-66
2021/05/29 15:58:18;;;;;;;1.50;1.30;;;;;;;;;;10521530;28;20215;-68
2021/05/29 16:03:20;;;;;;;3.03;1.67;;;;;;;;;;10522743;28;20302;-67
2021/05/29 16:08:25;;;;;;;2.00;1.57;;;;;;;;;;10525692;28;20288;-67
2021/05/29 16:13:31;;;;;;;2.73;1.60;;;;;;;;;;10525918;28;20311;-68
2021/05/29 16:18:34;;;;;;;3.70;1.80;;;;;;;;;;10510774;28;20213;-67
2021/05/29 16:23:43;;;;;;;5.43;2.60;;;;;;;;;;10527158;28;20223;-67
2021/05/29 16:28:45;;;;;;;4.23;1.70;;;;;;;;;;10524789;28;20267;-66
2021/05/29 16:33:47;;;;;;;2.03;1.50;;;;;;;;;;10524730;28;20267;-66
2021/05/29 16:38:50;;;;;;;3.07;1.23;;;;;;;;;;10519195;28;20249;-70
2021/05/29 16:43:52;;;;;;;3.20;1.50;;;;;;;;;;10527959;28;20221;-70
2021/05/29 16:48:54;;;;;;;3.33;1.27;;;;;;;;;;10524010;28;20245;-70
2021/05/29 16:53:57;;;;;;;4.67;1.70;;;;;;;;;;10526829;28;20655;-70
2021/05/29 16:59:00;;;;;;;3.23;1.30;;;;;;;;;;10524888;28;20215;-68
2021/05/29 17:04:02;;;;;;;2.83;1.60;;;;;;;;;;10522019;28;20219;-68
2021/05/29 17:09:05;;;;;;;2.80;1.40;;;;;;;;;;10524239;28;20187;-69
2021/05/29 17:14:11;;;;;;;3.43;1.50;;;;;;;;;;10520127;28;21065;-68
2021/05/29 17:19:13;;;;;;;2.03;1.40;;;;;;;;;;10521682;28;20216;-69
2021/05/29 17:24:17;;;;;;;1.80;1.10;;;;;;;;;;10520015;28;20242;-68
2021/05/29 17:29:20;;;;;;;4.07;2.10;;;;;;;;;;10527557;28;20203;-68
2021/05/29 17:34:22;;;;;;;4.53;2.03;;;;;;;;;;10536783;28;20682;-68
2021/05/29 17:39:27;;;;;;;3.53;2.00;;;;;;;;;;10524876;28;20578;-67
2021/05/29 17:44:29;;;;;;;8.37;3.73;;;;;;;;;;10533374;28;20246;-69
2021/05/29 17:49:31;;;;;;;3.00;1.60;;;;;;;;;;10535172;28;20219;-68
2021/05/29 17:54:34;;;;;;;3.90;1.97;;;;;;;;;;10534405;28;20212;-70
2021/05/29 17:59:42;;;;;;;3.13;1.43;;;;;;;;;;10535029;28;20761;-69
2021/05/29 18:04:44;;;;;;;4.47;2.50;;;;;;;;;;10529649;28;20247;-69
2021/05/29 18:09:48;;;;;;;2.77;1.33;;;;;;;;;;10534338;28;20196;-69
2021/05/29 18:14:50;;;;;;;4.53;2.20;;;;;;;;;;10531590;28;20725;-68
2021/05/29 18:19:52;;;;;;;1.67;1.20;;;;;;;;;;10540424;28;20273;-69
2021/05/29 18:24:55;;;;;;;2.10;1.30;;;;;;;;;;10527088;28;20216;-68
2021/05/29 18:29:57;;;;;;;1.93;1.50;;;;;;;;;;10532624;28;20615;-70
2021/05/29 18:34:59;;;;;;;6.97;3.60;;;;;;;;;;10523134;28;20224;-69
2021/05/29 18:40:03;;;;;;;1.83;1.23;;;;;;;;;;10531487;28;20196;-69
2021/05/29 18:45:06;;;;;;;2.33;1.40;;;;;;;;;;10536399;28;20279;-69
2021/05/29 18:50:09;;;;;;;4.43;1.90;;;;;;;;;;10535727;28;20196;-69
2021/05/29 18:55:13;;;;;;;4.67;1.83;;;;;;;;;;10531113;28;20212;-67
2021/05/29 19:05:46;;;;;;;2.27;1.50;;;;;;;;;;10528926;28;20219;-69
2021/05/29 19:10:49;;;;;;;4.63;2.23;;;;;;;;;;10529402;28;20196;-68
2021/05/29 19:15:52;;;;;;;13.30;8.47;;;;;;;;;;10531787;28;20218;-67
2021/05/29 19:20:54;;;;;;;9.80;3.90;;;;;;;;;;10533578;28;20240;-68
2021/05/29 19:26:19;;;;;;;5.67;2.43;;;;;;;;;;10530310;28;20211;-69
2021/05/29 19:31:25;;;;;;;3.37;1.70;;;;;;;;;;10521675;28;20263;-69
2021/05/29 19:41:50;;;;;;;4.57;2.00;;;;;;;;;;10522329;28;20616;-68
2021/05/29 19:47:24;;;;;;;4.57;2.00;;;;;;;;;;10524580;28;20188;-67
2021/05/29 20:16:10;;;;;;;4.83;2.23;;;;;;;;;;10529538;28;20726;-68
2021/05/29 20:24:48;;;;;;;4.23;2.10;;;;;;;;;;10528537;28;20238;-67
2021/05/29 20:29:51;;;;;;;5.47;2.30;;;;;;;;;;10529623;28;20313;-67
2021/05/29 20:35:00;;;;;;;3.97;2.13;;;;;;;;;;10538660;28;20619;-68
2021/05/29 20:40:04;;;;;;;5.77;2.60;;;;;;;;;;10525362;28;20295;-68
2021/05/29 20:45:09;;;;;;;4.93;2.13;;;;;;;;;;10524593;28;20306;-67
2021/05/29 20:50:11;;;;;;;5.00;2.30;;;;;;;;;;10535283;28;20216;-68
2021/05/29 20:55:14;;;;;;;4.97;2.33;;;;;;;;;;10522097;28;20227;-68
2021/05/29 21:00:17;;;;;;;6.00;2.80;;;;;;;;;;10519902;28;20309;-68
2021/05/29 21:05:19;;;;;;;5.93;2.47;;;;;;;;;;10521246;28;20260;-68
2021/05/29 21:10:22;;;;;;;4.67;2.10;;;;;;;;;;10522158;28;20226;-68
2021/05/29 21:15:30;;;;;;;5.90;2.53;;;;;;;;;;10526263;28;20231;-69
2021/05/29 21:26:06;;;;;;;4.83;2.30;;;;;;;;;;10368262;28;20309;-68
2021/05/29 21:31:10;;;;;;;5.47;2.47;;;;;;;;;;10487305;28;20303;-67
2021/05/29 21:36:12;;;;;;;5.13;2.47;;;;;;;;;;10520915;28;20210;-68
2021/05/29 21:41:14;;;;;;;5.20;2.53;;;;;;;;;;10517901;28;20607;-68
2021/05/29 21:51:37;;;;;;;5.87;2.30;;;;;;;;;;10519117;28;20285;-68
2021/05/29 21:56:40;;;;;;;5.67;2.17;;;;;;;;;;10525669;28;20642;-68
2021/05/29 22:01:43;;;;;;;7.47;2.60;;;;;;;;;;10521881;28;20219;-69
2021/05/29 22:06:45;;;;;;;4.40;2.50;;;;;;;;;;10515976;28;20200;-67
2021/05/29 22:33:05;;;;;;;6.17;2.90;;;;;;;;;;10494648;28;20219;-69
2021/05/29 22:38:08;;;;;;;7.73;3.00;;;;;;;;;;10521445;28;20619;-69
2021/05/29 22:43:10;;;;;;;5.73;2.80;;;;;;;;;;10525817;28;20257;-68
2021/05/29 22:48:13;;;;;;;8.40;3.70;;;;;;;;;;10523634;28;20271;-67
2021/05/29 22:53:15;;;;;;;6.57;3.50;;;;;;;;;;10521936;28;20280;-69
2021/05/29 22:58:17;;;;;;;7.67;3.53;;;;;;;;;;10526459;28;20296;-68
2021/05/29 23:03:19;;;;;;;7.70;3.50;;;;;;;;;;10533007;28;20956;-68
2021/05/29 23:08:22;;;;;;;10.10;4.40;;;;;;;;;;10518888;28;20227;-67
2021/05/29 23:13:24;;;;;;;7.97;3.83;;;;;;;;;;10530565;28;20226;-67
2021/05/29 23:18:27;;;;;;;8.60;4.10;;;;;;;;;;10523236;28;20192;-67
2021/05/29 23:23:29;;;;;;;9.00;3.97;;;;;;;;;;10518990;28;20222;-70
2021/05/29 23:28:31;;;;;;;8.80;4.00;;;;;;;;;;10523739;28;20265;-68
2021/05/29 23:33:34;;;;;;;7.57;4.00;;;;;;;;;;10523895;28;20333;-68
2021/05/29 23:38:36;;;;;;;9.43;4.43;;;;;;;;;;10517137;28;20200;-69
2021/05/29 23:43:38;;;;;;;9.57;4.63;;;;;;;;;;10528089;28;20224;-67
2021/05/29 23:48:41;;;;;;;8.10;4.37;;;;;;;;;;10521143;28;20227;-67
2021/05/29 23:53:43;;;;;;;10.27;4.33;;;;;;;;;;10531432;28;20648;-68
2021/05/29 23:58:47;;;;;;;8.07;4.00;;;;;;;;;;10518300;28;20301;-68
